Leesburg, Alabama
Current Conditions -  °F | °C
As of 7:55 AM on Monday 24 Nov 2014 (Local Time) from K4A9 Reporting Station
Scattered Clouds Scattered Clouds  
Wind Chill: 63°   Ceiling: Unl
Heat Index: 63°   Visibility: 10mi
Dew Point: 54°   Wind: 12mph
Humidity: 72%   Direction: 220°SW
Pressure: 29.74"   Gusts: 21mph
Location:  34.18°N, 85.76°W
Report Text: K4A9 241355Z AUTO 22010G18KT 10SM SCT028 SCT038 17/12 A2974 RMK AO2
Loading
Personal Weather Stations






























Interactive Weather Map New forecast layout! Learn more

10-Day Weather Forecast

Advertisements
Track Severe Weather on mobile